Disclaimer

Please do not use the information listed here in-flight or in-navigation, as they are not provided to us by the airports but are provided by volunteers, so they might be outdated.

Search


Regions


Airport information page

Radio informations:
Aerodrome flight information system (AFIS) - 123.0 MHz

Airport informations:
Latitude: 61° 41' 11.76" N
Longitude: 027° 12' 06.46" E
Elevation: 329 feet - 100 meters
Operating hours: N/A
Operating agency: Civil government, landing fees and diplomatic clearance may be required
Timezone: UTC+2(+3DT) - Last Sunday in March to last Sunday in October
Fuel: Jet A1, without icing nhibitor.

100/130 MIL Spec, low lead, aviation gasoline (BLUE)

Runway information:
11/29 - 5584 x 144 feet< - >1702 x 44 meters

Recent METARs:
EFMI 201350Z AUTO 30006KT 250V360 9999 OVC008 M00/M02 Q1028
EFMI 201420Z AUTO 30004KT 240V020 9999 OVC008 00/M01 Q1028
EFMI 201450Z AUTO 30004KT 250V010 9999 OVC008 00/M01 Q1028

Airport on the map: